sensor_id;sensor_type;location;lat;lon;timestamp;P1;durP1;ratioP1;P2;durP2;ratioP2
60086;SDS011;45960;53.630;55.972;2023-03-01T00:00:30;6.53;;;3.78;;
60086;SDS011;45960;53.630;55.972;2023-03-01T00:01:31;5.25;;;3.42;;
60086;SDS011;45960;53.630;55.972;2023-03-01T00:02:33;6.97;;;3.70;;
60086;SDS011;45960;53.630;55.972;2023-03-01T00:03:34;6.82;;;4.13;;
60086;SDS011;45960;53.630;55.972;2023-03-01T00:04:35;5.25;;;3.70;;
60086;SDS011;45960;53.630;55.972;2023-03-01T00:05:36;8.15;;;4.18;;
60086;SDS011;45960;53.630;55.972;2023-03-01T00:06:43;7.85;;;4.35;;
60086;SDS011;45960;53.630;55.972;2023-03-01T00:07:47;6.07;;;3.78;;
60086;SDS011;45960;53.630;55.972;2023-03-01T00:08:48;8.98;;;3.55;;
60086;SDS011;45960;53.630;55.972;2023-03-01T00:09:50;5.75;;;3.10;;
60086;SDS011;45960;53.630;55.972;2023-03-01T00:11:03;5.45;;;3.30;;
60086;SDS011;45960;53.630;55.972;2023-03-01T00:12:05;8.55;;;4.50;;
60086;SDS011;45960;53.630;55.972;2023-03-01T00:13:07;5.18;;;3.60;;
60086;SDS011;45960;53.630;55.972;2023-03-01T00:14:08;5.78;;;4.18;;
60086;SDS011;45960;53.630;55.972;2023-03-01T00:15:09;7.70;;;3.88;;
60086;SDS011;45960;53.630;55.972;2023-03-01T00:16:13;5.97;;;3.90;;
60086;SDS011;45960;53.630;55.972;2023-03-01T00:17:16;7.20;;;4.07;;
60086;SDS011;45960;53.630;55.972;2023-03-01T00:18:17;5.70;;;3.63;;
60086;SDS011;45960;53.630;55.972;2023-03-01T00:19:19;6.25;;;3.63;;
60086;SDS011;45960;53.630;55.972;2023-03-01T00:20:20;7.40;;;4.07;;
60086;SDS011;45960;53.630;55.972;2023-03-01T00:21:21;4.65;;;2.90;;
60086;SDS011;45960;53.630;55.972;2023-03-01T00:22:23;5.38;;;3.38;;
60086;SDS011;45960;53.630;55.972;2023-03-01T00:23:25;5.95;;;3.45;;
60086;SDS011;45960;53.630;55.972;2023-03-01T00:24:26;6.30;;;4.03;;
60086;SDS011;45960;53.630;55.972;2023-03-01T00:25:27;6.68;;;4.22;;
60086;SDS011;45960;53.630;55.972;2023-03-01T00:26:28;6.47;;;4.60;;
60086;SDS011;45960;53.630;55.972;2023-03-01T00:27:30;8.82;;;3.85;;
60086;SDS011;45960;53.630;55.972;2023-03-01T00:28:31;6.70;;;3.92;;
60086;SDS011;45960;53.630;55.972;2023-03-01T00:29:32;8.43;;;4.70;;
60086;SDS011;45960;53.630;55.972;2023-03-01T00:30:33;5.32;;;3.70;;
60086;SDS011;45960;53.630;55.972;2023-03-01T00:31:35;7.55;;;4.07;;
60086;SDS011;45960;53.630;55.972;2023-03-01T00:32:36;6.10;;;3.80;;
60086;SDS011;45960;53.630;55.972;2023-03-01T00:33:37;6.32;;;3.85;;
60086;SDS011;45960;53.630;55.972;2023-03-01T00:34:39;8.15;;;4.05;;
60086;SDS011;45960;53.630;55.972;2023-03-01T00:35:40;6.38;;;3.95;;
60086;SDS011;45960;53.630;55.972;2023-03-01T00:36:41;8.60;;;3.92;;
60086;SDS011;45960;53.630;55.972;2023-03-01T00:37:42;9.32;;;5.72;;
60086;SDS011;45960;53.630;55.972;2023-03-01T00:38:44;6.82;;;4.45;;
60086;SDS011;45960;53.630;55.972;2023-03-01T00:39:46;7.88;;;4.30;;
60086;SDS011;45960;53.630;55.972;2023-03-01T00:40:47;4.25;;;2.63;;
60086;SDS011;45960;53.630;55.972;2023-03-01T00:41:48;6.18;;;3.80;;
60086;SDS011;45960;53.630;55.972;2023-03-01T00:42:50;5.13;;;3.13;;
60086;SDS011;45960;53.630;55.972;2023-03-01T00:43:51;4.97;;;3.55;;
60086;SDS011;45960;53.630;55.972;2023-03-01T00:44:52;5.40;;;3.60;;
60086;SDS011;45960;53.630;55.972;2023-03-01T00:45:53;4.85;;;3.25;;
60086;SDS011;45960;53.630;55.972;2023-03-01T00:46:54;5.07;;;3.33;;
60086;SDS011;45960;53.630;55.972;2023-03-01T00:47:55;5.40;;;3.20;;
60086;SDS011;45960;53.630;55.972;2023-03-01T00:48:56;5.50;;;3.53;;
60086;SDS011;45960;53.630;55.972;2023-03-01T00:49:57;6.32;;;3.38;;
60086;SDS011;45960;53.630;55.972;2023-03-01T00:51:04;6.55;;;3.25;;
60086;SDS011;45960;53.630;55.972;2023-03-01T00:52:09;4.43;;;3.05;;
60086;SDS011;45960;53.630;55.972;2023-03-01T00:53:10;5.82;;;3.45;;
60086;SDS011;45960;53.630;55.972;2023-03-01T00:54:11;6.25;;;3.60;;
60086;SDS011;45960;53.630;55.972;2023-03-01T00:55:12;6.05;;;3.85;;
60086;SDS011;45960;53.630;55.972;2023-03-01T00:56:14;6.20;;;4.38;;
60086;SDS011;45960;53.630;55.972;2023-03-01T00:57:15;9.20;;;4.38;;
60086;SDS011;45960;53.630;55.972;2023-03-01T00:58:16;7.80;;;4.00;;
60086;SDS011;45960;53.630;55.972;2023-03-01T00:59:17;5.43;;;3.63;;
60086;SDS011;45960;53.630;55.972;2023-03-01T01:00:18;4.70;;;3.13;;
60086;SDS011;45960;53.630;55.972;2023-03-01T01:01:22;5.90;;;3.45;;
60086;SDS011;45960;53.630;55.972;2023-03-01T01:02:32;7.45;;;4.00;;
60086;SDS011;45960;53.630;55.972;2023-03-01T01:03:34;6.90;;;4.13;;
60086;SDS011;45960;53.630;55.972;2023-03-01T01:04:35;6.30;;;3.83;;
60086;SDS011;45960;53.630;55.972;2023-03-01T01:05:38;6.63;;;3.88;;
60086;SDS011;45960;53.630;55.972;2023-03-01T01:06:43;6.68;;;3.72;;
60086;SDS011;45960;53.630;55.972;2023-03-01T01:07:45;6.40;;;4.47;;
60086;SDS011;45960;53.630;55.972;2023-03-01T01:08:46;4.90;;;3.45;;
60086;SDS011;45960;53.630;55.972;2023-03-01T01:09:48;7.00;;;4.25;;
60086;SDS011;45960;53.630;55.972;2023-03-01T01:10:51;6.72;;;4.10;;
60086;SDS011;45960;53.630;55.972;2023-03-01T01:11:52;4.78;;;3.35;;
60086;SDS011;45960;53.630;55.972;2023-03-01T01:12:53;5.80;;;3.88;;
60086;SDS011;45960;53.630;55.972;2023-03-01T01:13:54;6.07;;;4.10;;
60086;SDS011;45960;53.630;55.972;2023-03-01T01:14:56;7.35;;;3.95;;
60086;SDS011;45960;53.630;55.972;2023-03-01T01:16:00;11.90;;;4.57;;
60086;SDS011;45960;53.630;55.972;2023-03-01T01:17:02;6.57;;;4.03;;
60086;SDS011;45960;53.630;55.972;2023-03-01T01:18:03;8.02;;;4.20;;
60086;SDS011;45960;53.630;55.972;2023-03-01T01:19:04;5.70;;;3.10;;
60086;SDS011;45960;53.630;55.972;2023-03-01T01:20:06;6.05;;;3.53;;
60086;SDS011;45960;53.630;55.972;2023-03-01T01:21:09;6.43;;;3.80;;
60086;SDS011;45960;53.630;55.972;2023-03-01T01:22:12;7.63;;;4.15;;
60086;SDS011;45960;53.630;55.972;2023-03-01T01:23:13;5.82;;;3.97;;
60086;SDS011;45960;53.630;55.972;2023-03-01T01:24:15;7.93;;;4.75;;
60086;SDS011;45960;53.630;55.972;2023-03-01T01:25:16;6.93;;;4.60;;
60086;SDS011;45960;53.630;55.972;2023-03-01T01:26:19;6.93;;;4.50;;
60086;SDS011;45960;53.630;55.972;2023-03-01T01:27:24;8.82;;;4.82;;
60086;SDS011;45960;53.630;55.972;2023-03-01T01:28:25;5.45;;;2.85;;
60086;SDS011;45960;53.630;55.972;2023-03-01T01:29:26;7.60;;;4.15;;
60086;SDS011;45960;53.630;55.972;2023-03-01T01:30:27;8.05;;;4.38;;
60086;SDS011;45960;53.630;55.972;2023-03-01T01:31:29;6.68;;;4.28;;
60086;SDS011;45960;53.630;55.972;2023-03-01T01:32:31;7.15;;;4.20;;
60086;SDS011;45960;53.630;55.972;2023-03-01T01:33:32;7.43;;;4.15;;
60086;SDS011;45960;53.630;55.972;2023-03-01T01:34:33;8.32;;;4.53;;
60086;SDS011;45960;53.630;55.972;2023-03-01T01:35:35;6.50;;;4.05;;
60086;SDS011;45960;53.630;55.972;2023-03-01T01:36:36;8.13;;;4.60;;
60086;SDS011;45960;53.630;55.972;2023-03-01T01:37:37;8.73;;;4.43;;
60086;SDS011;45960;53.630;55.972;2023-03-01T01:38:38;8.23;;;5.05;;
60086;SDS011;45960;53.630;55.972;2023-03-01T01:39:40;8.27;;;4.60;;
60086;SDS011;45960;53.630;55.972;2023-03-01T01:40:45;7.28;;;4.50;;
60086;SDS011;45960;53.630;55.972;2023-03-01T01:41:47;9.65;;;5.15;;
60086;SDS011;45960;53.630;55.972;2023-03-01T01:42:48;7.13;;;4.60;;
60086;SDS011;45960;53.630;55.972;2023-03-01T01:44:08;7.97;;;5.70;;
60086;SDS011;45960;53.630;55.972;2023-03-01T01:46:29;11.05;;;3.97;;
60086;SDS011;45960;53.630;55.972;2023-03-01T01:47:32;8.35;;;4.82;;
60086;SDS011;45960;53.630;55.972;2023-03-01T01:48:37;5.55;;;3.25;;
60086;SDS011;45960;53.630;55.972;2023-03-01T01:49:43;7.30;;;4.32;;
60086;SDS011;45960;53.630;55.972;2023-03-01T01:50:58;6.20;;;4.38;;
60086;SDS011;45960;53.630;55.972;2023-03-01T01:52:10;7.05;;;4.95;;
60086;SDS011;45960;53.630;55.972;2023-03-01T01:53:17;6.80;;;3.67;;
60086;SDS011;45960;53.630;55.972;2023-03-01T01:54:23;10.88;;;5.43;;
60086;SDS011;45960;53.630;55.972;2023-03-01T01:55:27;7.75;;;4.40;;
60086;SDS011;45960;53.630;55.972;2023-03-01T01:56:29;6.68;;;4.25;;
60086;SDS011;45960;53.630;55.972;2023-03-01T01:57:34;9.15;;;5.15;;
60086;SDS011;45960;53.630;55.972;2023-03-01T01:58:37;8.55;;;4.47;;
60086;SDS011;45960;53.630;55.972;2023-03-01T01:59:42;7.18;;;3.95;;
60086;SDS011;45960;53.630;55.972;2023-03-01T02:00:49;8.50;;;3.90;;
60086;SDS011;45960;53.630;55.972;2023-03-01T02:01:52;7.55;;;4.35;;
60086;SDS011;45960;53.630;55.972;2023-03-01T02:02:55;6.53;;;4.25;;
60086;SDS011;45960;53.630;55.972;2023-03-01T02:04:00;6.95;;;4.45;;
60086;SDS011;45960;53.630;55.972;2023-03-01T02:05:03;7.07;;;4.55;;
60086;SDS011;45960;53.630;55.972;2023-03-01T02:06:17;7.18;;;4.28;;
60086;SDS011;45960;53.630;55.972;2023-03-01T02:07:22;7.63;;;4.55;;
60086;SDS011;45960;53.630;55.972;2023-03-01T02:08:26;8.20;;;4.55;;
60086;SDS011;45960;53.630;55.972;2023-03-01T02:09:31;9.40;;;5.40;;
60086;SDS011;45960;53.630;55.972;2023-03-01T02:10:33;8.45;;;5.22;;
60086;SDS011;45960;53.630;55.972;2023-03-01T02:11:36;9.10;;;5.47;;
60086;SDS011;45960;53.630;55.972;2023-03-01T02:12:38;6.63;;;3.90;;
60086;SDS011;45960;53.630;55.972;2023-03-01T02:13:40;8.88;;;5.10;;
60086;SDS011;45960;53.630;55.972;2023-03-01T02:14:43;6.90;;;3.15;;
60086;SDS011;45960;53.630;55.972;2023-03-01T02:15:44;6.30;;;3.88;;
60086;SDS011;45960;53.630;55.972;2023-03-01T02:16:45;9.80;;;5.03;;
60086;SDS011;45960;53.630;55.972;2023-03-01T02:17:47;12.93;;;6.22;;
60086;SDS011;45960;53.630;55.972;2023-03-01T02:18:48;12.85;;;4.80;;
60086;SDS011;45960;53.630;55.972;2023-03-01T02:19:57;8.10;;;4.80;;
60086;SDS011;45960;53.630;55.972;2023-03-01T02:22:30;7.45;;;4.50;;
60086;SDS011;45960;53.630;55.972;2023-03-01T02:23:33;7.97;;;4.22;;
60086;SDS011;45960;53.630;55.972;2023-03-01T02:26:27;8.90;;;5.00;;
60086;SDS011;45960;53.630;55.972;2023-03-01T02:27:56;10.25;;;4.88;;
60086;SDS011;45960;53.630;55.972;2023-03-01T02:30:18;4.85;;;3.42;;
60086;SDS011;45960;53.630;55.972;2023-03-01T02:31:21;6.82;;;4.80;;
60086;SDS011;45960;53.630;55.972;2023-03-01T02:32:41;7.75;;;4.68;;
60086;SDS011;45960;53.630;55.972;2023-03-01T02:33:42;9.02;;;5.40;;
60086;SDS011;45960;53.630;55.972;2023-03-01T02:34:45;9.30;;;5.18;;
60086;SDS011;45960;53.630;55.972;2023-03-01T02:35:47;9.95;;;5.15;;
60086;SDS011;45960;53.630;55.972;2023-03-01T02:36:57;8.32;;;4.25;;
60086;SDS011;45960;53.630;55.972;2023-03-01T02:38:06;8.00;;;4.45;;
60086;SDS011;45960;53.630;55.972;2023-03-01T02:39:10;8.65;;;4.72;;
60086;SDS011;45960;53.630;55.972;2023-03-01T02:40:18;6.82;;;3.97;;
60086;SDS011;45960;53.630;55.972;2023-03-01T02:41:22;6.72;;;4.07;;
60086;SDS011;45960;53.630;55.972;2023-03-01T02:42:26;9.02;;;4.65;;
60086;SDS011;45960;53.630;55.972;2023-03-01T02:43:33;5.57;;;3.78;;
60086;SDS011;45960;53.630;55.972;2023-03-01T02:44:35;6.45;;;4.40;;
60086;SDS011;45960;53.630;55.972;2023-03-01T02:45:36;8.30;;;5.25;;
60086;SDS011;45960;53.630;55.972;2023-03-01T02:46:42;14.27;;;4.47;;
60086;SDS011;45960;53.630;55.972;2023-03-01T02:47:45;8.07;;;3.80;;
60086;SDS011;45960;53.630;55.972;2023-03-01T02:48:51;7.88;;;4.50;;
60086;SDS011;45960;53.630;55.972;2023-03-01T02:49:57;5.47;;;3.05;;
60086;SDS011;45960;53.630;55.972;2023-03-01T02:51:04;6.10;;;3.97;;
60086;SDS011;45960;53.630;55.972;2023-03-01T02:52:37;5.95;;;3.63;;
60086;SDS011;45960;53.630;55.972;2023-03-01T02:56:09;7.63;;;5.25;;
60086;SDS011;45960;53.630;55.972;2023-03-01T02:57:14;5.50;;;3.35;;
60086;SDS011;45960;53.630;55.972;2023-03-01T02:58:16;10.02;;;5.00;;
60086;SDS011;45960;53.630;55.972;2023-03-01T02:59:19;7.20;;;4.20;;
60086;SDS011;45960;53.630;55.972;2023-03-01T03:00:24;6.75;;;4.18;;
60086;SDS011;45960;53.630;55.972;2023-03-01T03:01:29;7.68;;;4.13;;
60086;SDS011;45960;53.630;55.972;2023-03-01T03:02:41;12.20;;;4.43;;
60086;SDS011;45960;53.630;55.972;2023-03-01T03:03:53;7.00;;;4.20;;
60086;SDS011;45960;53.630;55.972;2023-03-01T03:04:55;9.05;;;5.07;;
60086;SDS011;45960;53.630;55.972;2023-03-01T03:05:57;8.43;;;4.72;;
60086;SDS011;45960;53.630;55.972;2023-03-01T03:07:09;6.57;;;3.78;;
60086;SDS011;45960;53.630;55.972;2023-03-01T03:08:43;6.03;;;4.30;;
60086;SDS011;45960;53.630;55.972;2023-03-01T03:09:44;9.80;;;4.88;;
60086;SDS011;45960;53.630;55.972;2023-03-01T03:10:47;4.82;;;3.28;;
60086;SDS011;45960;53.630;55.972;2023-03-01T03:11:48;8.30;;;4.38;;
60086;SDS011;45960;53.630;55.972;2023-03-01T03:12:49;8.45;;;5.05;;
60086;SDS011;45960;53.630;55.972;2023-03-01T03:13:52;9.85;;;4.75;;
60086;SDS011;45960;53.630;55.972;2023-03-01T03:14:53;8.50;;;5.05;;
60086;SDS011;45960;53.630;55.972;2023-03-01T03:15:55;7.22;;;4.43;;
60086;SDS011;45960;53.630;55.972;2023-03-01T03:16:58;7.85;;;4.57;;
60086;SDS011;45960;53.630;55.972;2023-03-01T03:17:59;7.85;;;5.20;;
60086;SDS011;45960;53.630;55.972;2023-03-01T03:19:00;6.13;;;4.07;;
60086;SDS011;45960;53.630;55.972;2023-03-01T03:20:06;7.20;;;4.65;;
60086;SDS011;45960;53.630;55.972;2023-03-01T03:21:12;8.75;;;5.15;;
60086;SDS011;45960;53.630;55.972;2023-03-01T03:22:14;7.45;;;4.63;;
60086;SDS011;45960;53.630;55.972;2023-03-01T03:23:15;9.40;;;5.07;;
60086;SDS011;45960;53.630;55.972;2023-03-01T03:24:16;27.83;;;4.68;;
60086;SDS011;45960;53.630;55.972;2023-03-01T03:25:18;6.47;;;4.45;;
60086;SDS011;45960;53.630;55.972;2023-03-01T03:26:20;6.15;;;4.03;;
60086;SDS011;45960;53.630;55.972;2023-03-01T03:27:21;5.57;;;2.88;;
60086;SDS011;45960;53.630;55.972;2023-03-01T03:28:22;8.00;;;4.57;;
60086;SDS011;45960;53.630;55.972;2023-03-01T03:29:23;7.32;;;4.10;;
60086;SDS011;45960;53.630;55.972;2023-03-01T03:30:26;7.68;;;4.57;;
60086;SDS011;45960;53.630;55.972;2023-03-01T03:31:31;5.45;;;3.33;;
60086;SDS011;45960;53.630;55.972;2023-03-01T03:32:33;7.65;;;3.38;;
60086;SDS011;45960;53.630;55.972;2023-03-01T03:33:34;16.27;;;3.38;;
60086;SDS011;45960;53.630;55.972;2023-03-01T03:34:35;6.15;;;4.07;;
60086;SDS011;45960;53.630;55.972;2023-03-01T03:35:43;10.63;;;3.45;;
60086;SDS011;45960;53.630;55.972;2023-03-01T03:36:46;2.03;;;1.25;;
60086;SDS011;45960;53.630;55.972;2023-03-01T03:37:47;4.93;;;2.47;;
60086;SDS011;45960;53.630;55.972;2023-03-01T03:39:03;4.68;;;1.67;;
60086;SDS011;45960;53.630;55.972;2023-03-01T03:40:05;3.13;;;2.28;;
60086;SDS011;45960;53.630;55.972;2023-03-01T03:41:16;1.58;;;1.48;;
60086;SDS011;45960;53.630;55.972;2023-03-01T03:42:26;5.57;;;2.85;;
60086;SDS011;45960;53.630;55.972;2023-03-01T03:43:31;1.92;;;1.25;;
60086;SDS011;45960;53.630;55.972;2023-03-01T03:44:36;1.30;;;1.20;;
60086;SDS011;45960;53.630;55.972;2023-03-01T03:45:38;2.65;;;1.80;;
60086;SDS011;45960;53.630;55.972;2023-03-01T03:46:39;2.75;;;1.67;;
60086;SDS011;45960;53.630;55.972;2023-03-01T03:47:41;2.80;;;2.35;;
60086;SDS011;45960;53.630;55.972;2023-03-01T03:48:43;3.38;;;3.13;;
60086;SDS011;45960;53.630;55.972;2023-03-01T03:49:46;3.05;;;2.47;;
60086;SDS011;45960;53.630;55.972;2023-03-01T03:50:48;2.47;;;1.60;;
60086;SDS011;45960;53.630;55.972;2023-03-01T03:51:51;2.17;;;1.98;;
60086;SDS011;45960;53.630;55.972;2023-03-01T03:52:52;1.60;;;1.42;;
60086;SDS011;45960;53.630;55.972;2023-03-01T03:53:53;4.80;;;1.27;;
60086;SDS011;45960;53.630;55.972;2023-03-01T03:54:54;2.22;;;1.17;;
60086;SDS011;45960;53.630;55.972;2023-03-01T03:55:55;0.38;;;0.38;;
60086;SDS011;45960;53.630;55.972;2023-03-01T03:56:56;1.55;;;1.40;;
60086;SDS011;45960;53.630;55.972;2023-03-01T03:57:58;2.22;;;1.98;;
60086;SDS011;45960;53.630;55.972;2023-03-01T03:59:02;0.88;;;0.88;;
60086;SDS011;45960;53.630;55.972;2023-03-01T04:00:04;1.05;;;1.02;;
60086;SDS011;45960;53.630;55.972;2023-03-01T04:01:12;0.70;;;0.65;;
60086;SDS011;45960;53.630;55.972;2023-03-01T04:02:14;4.07;;;1.63;;
60086;SDS011;45960;53.630;55.972;2023-03-01T04:03:22;3.33;;;1.52;;
60086;SDS011;45960;53.630;55.972;2023-03-01T04:04:25;6.40;;;3.00;;
60086;SDS011;45960;53.630;55.972;2023-03-01T04:05:27;0.75;;;0.75;;
60086;SDS011;45960;53.630;55.972;2023-03-01T04:06:28;11.77;;;1.50;;
60086;SDS011;45960;53.630;55.972;2023-03-01T04:07:29;3.25;;;1.95;;
60086;SDS011;45960;53.630;55.972;2023-03-01T04:08:30;1.00;;;0.93;;
60086;SDS011;45960;53.630;55.972;2023-03-01T04:09:32;2.33;;;0.80;;
60086;SDS011;45960;53.630;55.972;2023-03-01T04:10:35;3.35;;;2.50;;
60086;SDS011;45960;53.630;55.972;2023-03-01T04:11:38;1.63;;;0.93;;
60086;SDS011;45960;53.630;55.972;2023-03-01T04:12:39;2.88;;;1.88;;
60086;SDS011;45960;53.630;55.972;2023-03-01T04:13:40;2.08;;;1.85;;
60086;SDS011;45960;53.630;55.972;2023-03-01T04:14:41;5.25;;;2.65;;
60086;SDS011;45960;53.630;55.972;2023-03-01T04:15:42;1.95;;;1.17;;
60086;SDS011;45960;53.630;55.972;2023-03-01T04:16:44;1.77;;;0.70;;
60086;SDS011;45960;53.630;55.972;2023-03-01T04:17:45;2.05;;;1.13;;
60086;SDS011;45960;53.630;55.972;2023-03-01T04:18:47;11.15;;;2.90;;
60086;SDS011;45960;53.630;55.972;2023-03-01T04:19:48;1.40;;;0.95;;
60086;SDS011;45960;53.630;55.972;2023-03-01T04:20:49;1.70;;;1.60;;
60086;SDS011;45960;53.630;55.972;2023-03-01T04:21:53;1.98;;;1.55;;
60086;SDS011;45960;53.630;55.972;2023-03-01T04:22:58;2.30;;;1.90;;
60086;SDS011;45960;53.630;55.972;2023-03-01T04:24:11;5.13;;;2.55;;
60086;SDS011;45960;53.630;55.972;2023-03-01T04:25:13;1.33;;;0.77;;
60086;SDS011;45960;53.630;55.972;2023-03-01T04:26:15;5.50;;;1.77;;
60086;SDS011;45960;53.630;55.972;2023-03-01T04:27:16;0.80;;;0.80;;
60086;SDS011;45960;53.630;55.972;2023-03-01T04:28:17;2.33;;;1.85;;
60086;SDS011;45960;53.630;55.972;2023-03-01T04:29:18;4.05;;;2.55;;
60086;SDS011;45960;53.630;55.972;2023-03-01T04:30:20;0.93;;;0.93;;
60086;SDS011;45960;53.630;55.972;2023-03-01T04:31:25;0.73;;;0.73;;
60086;SDS011;45960;53.630;55.972;2023-03-01T04:32:27;6.43;;;2.85;;
60086;SDS011;45960;53.630;55.972;2023-03-01T04:33:28;1.35;;;0.75;;
60086;SDS011;45960;53.630;55.972;2023-03-01T04:34:29;0.82;;;0.82;;
60086;SDS011;45960;53.630;55.972;2023-03-01T04:35:31;0.90;;;0.90;;
60086;SDS011;45960;53.630;55.972;2023-03-01T04:36:33;2.53;;;2.10;;
60086;SDS011;45960;53.630;55.972;2023-03-01T04:37:35;1.35;;;1.25;;
60086;SDS011;45960;53.630;55.972;2023-03-01T04:38:37;1.75;;;1.27;;
60086;SDS011;45960;53.630;55.972;2023-03-01T04:39:39;1.35;;;1.05;;
60086;SDS011;45960;53.630;55.972;2023-03-01T04:40:45;1.13;;;1.13;;
60086;SDS011;45960;53.630;55.972;2023-03-01T04:41:47;2.80;;;1.65;;
60086;SDS011;45960;53.630;55.972;2023-03-01T04:42:48;4.13;;;2.47;;
60086;SDS011;45960;53.630;55.972;2023-03-01T04:43:50;3.40;;;1.85;;
60086;SDS011;45960;53.630;55.972;2023-03-01T04:44:51;1.58;;;1.05;;
60086;SDS011;45960;53.630;55.972;2023-03-01T04:45:52;5.07;;;1.35;;
60086;SDS011;45960;53.630;55.972;2023-03-01T04:46:53;0.98;;;0.80;;
60086;SDS011;45960;53.630;55.972;2023-03-01T04:47:54;1.98;;;1.40;;
60086;SDS011;45960;53.630;55.972;2023-03-01T04:48:58;0.77;;;0.77;;
60086;SDS011;45960;53.630;55.972;2023-03-01T04:49:59;7.00;;;2.17;;
60086;SDS011;45960;53.630;55.972;2023-03-01T04:51:01;0.65;;;0.65;;
60086;SDS011;45960;53.630;55.972;2023-03-01T04:52:02;0.40;;;0.40;;
60086;SDS011;45960;53.630;55.972;2023-03-01T04:53:04;1.95;;;1.77;;
60086;SDS011;45960;53.630;55.972;2023-03-01T04:54:06;2.05;;;0.73;;
60086;SDS011;45960;53.630;55.972;2023-03-01T04:55:10;1.45;;;1.35;;
60086;SDS011;45960;53.630;55.972;2023-03-01T04:56:13;1.58;;;1.15;;
60086;SDS011;45960;53.630;55.972;2023-03-01T04:57:14;1.23;;;1.13;;
60086;SDS011;45960;53.630;55.972;2023-03-01T04:58:16;2.28;;;1.40;;
60086;SDS011;45960;53.630;55.972;2023-03-01T04:59:17;0.47;;;0.47;;
60086;SDS011;45960;53.630;55.972;2023-03-01T05:00:18;7.93;;;1.67;;
60086;SDS011;45960;53.630;55.972;2023-03-01T05:01:22;1.33;;;1.30;;
60086;SDS011;45960;53.630;55.972;2023-03-01T05:02:24;5.15;;;2.63;;
60086;SDS011;45960;53.630;55.972;2023-03-01T05:03:25;2.45;;;1.50;;
60086;SDS011;45960;53.630;55.972;2023-03-01T05:04:26;1.00;;;0.90;;
60086;SDS011;45960;53.630;55.972;2023-03-01T05:05:32;1.83;;;1.48;;
60086;SDS011;45960;53.630;55.972;2023-03-01T05:06:35;1.77;;;1.65;;
60086;SDS011;45960;53.630;55.972;2023-03-01T05:07:36;1.83;;;1.73;;
60086;SDS011;45960;53.630;55.972;2023-03-01T05:08:38;3.80;;;2.85;;
60086;SDS011;45960;53.630;55.972;2023-03-01T05:09:40;3.75;;;2.50;;
60086;SDS011;45960;53.630;55.972;2023-03-01T05:10:41;1.55;;;1.40;;
60086;SDS011;45960;53.630;55.972;2023-03-01T05:11:42;2.88;;;0.93;;
60086;SDS011;45960;53.630;55.972;2023-03-01T05:12:44;0.90;;;0.85;;
60086;SDS011;45960;53.630;55.972;2023-03-01T05:13:45;1.40;;;1.30;;
60086;SDS011;45960;53.630;55.972;2023-03-01T05:14:47;2.00;;;1.65;;
60086;SDS011;45960;53.630;55.972;2023-03-01T05:15:49;0.60;;;0.60;;
60086;SDS011;45960;53.630;55.972;2023-03-01T05:16:55;1.70;;;1.10;;
60086;SDS011;45960;53.630;55.972;2023-03-01T05:18:04;1.52;;;1.23;;
60086;SDS011;45960;53.630;55.972;2023-03-01T05:19:11;0.77;;;0.77;;
60086;SDS011;45960;53.630;55.972;2023-03-01T05:20:15;0.82;;;0.65;;
60086;SDS011;45960;53.630;55.972;2023-03-01T05:21:17;3.80;;;3.45;;
60086;SDS011;45960;53.630;55.972;2023-03-01T05:22:18;1.88;;;1.13;;
60086;SDS011;45960;53.630;55.972;2023-03-01T05:23:19;2.17;;;1.98;;
60086;SDS011;45960;53.630;55.972;2023-03-01T05:24:22;0.85;;;0.68;;
60086;SDS011;45960;53.630;55.972;2023-03-01T05:25:23;2.10;;;1.77;;
60086;SDS011;45960;53.630;55.972;2023-03-01T05:26:24;1.15;;;0.75;;
60086;SDS011;45960;53.630;55.972;2023-03-01T05:27:29;2.30;;;1.58;;
60086;SDS011;45960;53.630;55.972;2023-03-01T05:28:30;1.65;;;1.48;;
60086;SDS011;45960;53.630;55.972;2023-03-01T05:29:32;6.63;;;1.73;;
60086;SDS011;45960;53.630;55.972;2023-03-01T05:30:35;1.67;;;1.05;;
60086;SDS011;45960;53.630;55.972;2023-03-01T05:31:36;1.13;;;1.00;;
60086;SDS011;45960;53.630;55.972;2023-03-01T05:32:42;0.82;;;0.77;;
60086;SDS011;45960;53.630;55.972;2023-03-01T05:33:45;0.88;;;0.73;;
60086;SDS011;45960;53.630;55.972;2023-03-01T05:34:46;2.45;;;1.70;;
60086;SDS011;45960;53.630;55.972;2023-03-01T05:35:48;0.52;;;0.52;;
60086;SDS011;45960;53.630;55.972;2023-03-01T05:36:52;2.10;;;1.38;;
60086;SDS011;45960;53.630;55.972;2023-03-01T05:37:54;2.47;;;1.30;;
60086;SDS011;45960;53.630;55.972;2023-03-01T05:38:56;2.78;;;2.28;;
60086;SDS011;45960;53.630;55.972;2023-03-01T05:39:58;2.05;;;1.95;;
60086;SDS011;45960;53.630;55.972;2023-03-01T05:41:00;2.58;;;1.83;;
60086;SDS011;45960;53.630;55.972;2023-03-01T05:42:01;1.67;;;1.58;;
60086;SDS011;45960;53.630;55.972;2023-03-01T05:43:03;1.42;;;1.33;;
60086;SDS011;45960;53.630;55.972;2023-03-01T05:44:06;3.55;;;1.55;;
60086;SDS011;45960;53.630;55.972;2023-03-01T05:45:08;2.90;;;1.83;;
60086;SDS011;45960;53.630;55.972;2023-03-01T05:46:10;3.28;;;1.58;;
60086;SDS011;45960;53.630;55.972;2023-03-01T05:47:14;1.17;;;1.08;;
60086;SDS011;45960;53.630;55.972;2023-03-01T05:48:16;2.38;;;1.25;;
60086;SDS011;45960;53.630;55.972;2023-03-01T05:49:20;0.30;;;0.30;;
60086;SDS011;45960;53.630;55.972;2023-03-01T05:50:31;2.47;;;1.67;;
60086;SDS011;45960;53.630;55.972;2023-03-01T05:51:34;1.27;;;1.17;;
60086;SDS011;45960;53.630;55.972;2023-03-01T05:52:36;3.25;;;1.52;;
60086;SDS011;45960;53.630;55.972;2023-03-01T05:53:37;1.58;;;1.42;;
60086;SDS011;45960;53.630;55.972;2023-03-01T05:54:39;5.72;;;2.47;;
60086;SDS011;45960;53.630;55.972;2023-03-01T05:55:40;0.90;;;0.88;;
60086;SDS011;45960;53.630;55.972;2023-03-01T05:56:43;0.57;;;0.57;;
60086;SDS011;45960;53.630;55.972;2023-03-01T05:57:45;1.77;;;1.05;;
60086;SDS011;45960;53.630;55.972;2023-03-01T05:58:50;1.60;;;1.50;;
60086;SDS011;45960;53.630;55.972;2023-03-01T05:59:51;3.13;;;2.83;;
60086;SDS011;45960;53.630;55.972;2023-03-01T06:00:52;1.98;;;1.00;;
60086;SDS011;45960;53.630;55.972;2023-03-01T06:01:53;3.80;;;2.70;;
60086;SDS011;45960;53.630;55.972;2023-03-01T06:02:55;0.88;;;0.88;;
60086;SDS011;45960;53.630;55.972;2023-03-01T06:03:58;2.25;;;1.65;;
60086;SDS011;45960;53.630;55.972;2023-03-01T06:04:59;4.80;;;2.50;;
60086;SDS011;45960;53.630;55.972;2023-03-01T06:06:01;6.30;;;2.40;;
60086;SDS011;45960;53.630;55.972;2023-03-01T06:07:02;2.85;;;1.98;;
60086;SDS011;45960;53.630;55.972;2023-03-01T06:08:03;1.10;;;0.95;;
60086;SDS011;45960;53.630;55.972;2023-03-01T06:09:05;4.30;;;2.10;;
60086;SDS011;45960;53.630;55.972;2023-03-01T06:10:08;4.28;;;2.72;;
60086;SDS011;45960;53.630;55.972;2023-03-01T06:11:10;1.73;;;1.63;;
60086;SDS011;45960;53.630;55.972;2023-03-01T06:12:11;1.90;;;1.73;;
60086;SDS011;45960;53.630;55.972;2023-03-01T06:13:12;1.60;;;1.35;;
60086;SDS011;45960;53.630;55.972;2023-03-01T06:14:13;1.60;;;1.50;;
60086;SDS011;45960;53.630;55.972;2023-03-01T06:15:16;3.00;;;2.38;;
60086;SDS011;45960;53.630;55.972;2023-03-01T06:16:17;7.55;;;2.42;;
60086;SDS011;45960;53.630;55.972;2023-03-01T06:17:18;2.05;;;1.27;;
60086;SDS011;45960;53.630;55.972;2023-03-01T06:18:19;2.38;;;1.60;;
60086;SDS011;45960;53.630;55.972;2023-03-01T06:19:20;0.80;;;0.80;;
60086;SDS011;45960;53.630;55.972;2023-03-01T06:20:22;0.50;;;0.45;;
60086;SDS011;45960;53.630;55.972;2023-03-01T06:21:25;2.20;;;1.48;;
60086;SDS011;45960;53.630;55.972;2023-03-01T06:22:26;3.30;;;1.20;;